GMTN  Saniat Rmel Airport

Add Bookmark

Morocco

Status IATA
Operational TTU
Latitude Longitude
35° 35' 39" N 5° 19' 12" W
35.594299 -5.320020
Local (DST + 1) UTC (GMT 0)
Jul 24, 2014 07:25 Jul 24, 2014 19:25
Sunrise-Sunset Local UTC
Begin Civil Twilight 04:53 04:53
Sunrise 05:22 05:22
Sunset 07:33 19:33
End Civil Twilight 08:01 20:01

Current Weather

METAR Observed VFR
GMTN 241900Z 27009KT 220V320 CAVOK 27/08 Q1009 NOSIG Thu, Jul 24, 2014 @ 19:00 UTC
(25 Minutes ago)
Visual Flight Rules

Decoded METAR

Wind Visibility Clouds Conditions
270° at 9 knots (17 kph) 10 km or more
  • Clear skies
  • No significant weather
Temperatures Readings Precipitation
Current Temp 27°C (81°F)
Dewpoint 8°C (46°F)
Humidity 30%
Altimeter 29.79"Hg
Sea Level Pressure 1009mb
Field Elevation 32.81'
None Recorded

Additional weather within a 92.6km radius of GMTN

Map ICAO Location
GMTT 55.9km W (285°)
LXGB 61.9km N (360°)

24 Hour Weather History

Loading
-

24 Hour Weather Graphs

Loading
-

CheckWX.com is intended as a tool to help pilots better visualize weather data. It is not intended as a substitute for an official weather briefing obtained from a Flight Service Station. CheckWX.com does not meet the FAA requirements for an official pre-flight weather briefing. Therefore, it's important that pilots still call and obtain an official FSS pre-flight weather briefing.